Terminal Aerodrome Forecast
Issued by NWS

Home | Current Version | Previous Version | Text Only | Print | Product List | Glossary On
Versions: 1 2 3 4 5 6 7 8 9 10 11 12 13 14 15 16 17 18 19 20 21 22 23 24 25
367
FTUS41 KPHI 121740
TAFPNE
TAF
KPNE 121740Z 1218/1318 24006KT P6SM SCT150
     FM122100 22011KT P6SM OVC060
     FM130300 22006KT 5SM -SHSN BKN030
     FM130900 28012G20KT P6SM OVC040
     FM131200 31020G33KT P6SM SCT050
     FM131500 32020G35KT P6SM BKN050=

USA.gov is the U.S. government's official web portal to all federal, state and local government web resources and services.